createdAt,value
2017-09-05T00:00:53.306Z,0.00
2017-09-05T00:02:47.786Z,0.00
2017-09-05T00:03:48.804Z,0.00
2017-09-05T00:05:42.276Z,0.00
2017-09-05T00:06:42.298Z,0.00
2017-09-05T00:08:35.747Z,0.00
2017-09-05T00:09:35.795Z,0.00
2017-09-05T00:11:30.267Z,0.00
2017-09-05T00:12:30.291Z,0.00
2017-09-05T00:14:23.763Z,0.00
2017-09-05T00:15:23.779Z,0.00
2017-09-05T00:17:18.243Z,0.00
2017-09-05T00:18:18.284Z,0.00
2017-09-05T00:20:12.771Z,0.00
2017-09-05T00:21:12.779Z,0.00
2017-09-05T00:23:06.252Z,0.00
2017-09-05T00:24:06.275Z,0.00
2017-09-05T00:26:00.763Z,0.00
2017-09-05T00:27:00.779Z,0.00
2017-09-05T00:28:55.236Z,0.00
2017-09-05T00:29:56.269Z,0.00
2017-09-05T00:31:49.757Z,0.00
2017-09-05T00:32:49.774Z,0.00
2017-09-05T00:34:44.228Z,0.00
2017-09-05T00:35:44.263Z,0.00
2017-09-05T00:37:38.787Z,0.00
2017-09-05T00:38:38.764Z,0.00
2017-09-05T00:40:33.303Z,0.00
2017-09-05T00:41:33.268Z,0.00
2017-09-05T00:43:27.748Z,0.00
2017-09-05T00:44:27.773Z,0.00
2017-09-05T00:46:22.220Z,0.00
2017-09-05T00:47:22.260Z,0.00
2017-09-05T00:49:16.740Z,0.00
2017-09-05T00:50:16.757Z,0.00
2017-09-05T00:52:11.285Z,0.00
2017-09-05T00:53:11.333Z,0.00
2017-09-05T00:55:04.749Z,0.00
2017-09-05T00:56:04.783Z,0.00
2017-09-05T00:58:00.742Z,0.00
2017-09-05T00:59:00.757Z,0.00
2017-09-05T01:00:55.237Z,0.00
2017-09-05T01:01:55.253Z,0.00
2017-09-05T01:03:49.741Z,0.00
2017-09-05T01:04:49.902Z,0.00
2017-09-05T01:06:44.246Z,0.00
2017-09-05T01:07:44.261Z,0.00
2017-09-05T01:09:38.741Z,0.00
2017-09-05T01:10:38.757Z,0.00
2017-09-05T01:12:32.302Z,0.00
2017-09-05T01:13:32.302Z,0.00
2017-09-05T01:15:26.789Z,0.00
2017-09-05T01:16:26.837Z,0.00
2017-09-05T01:18:21.269Z,0.00
2017-09-05T01:19:21.309Z,0.00
2017-09-05T01:21:15.821Z,0.00
2017-09-05T01:22:15.830Z,0.00
2017-09-05T01:24:10.277Z,0.00
2017-09-05T01:25:10.309Z,0.00
2017-09-05T01:27:04.811Z,0.00
2017-09-05T01:28:04.831Z,0.00
2017-09-05T01:29:59.576Z,0.00
2017-09-05T01:30:59.339Z,0.00
2017-09-05T01:32:53.792Z,0.00
2017-09-05T01:33:53.816Z,0.00
2017-09-05T01:35:48.392Z,0.00
2017-09-05T01:36:48.320Z,0.00
2017-09-05T01:38:42.793Z,0.00
2017-09-05T01:39:42.831Z,0.00
2017-09-05T01:41:36.353Z,0.00
2017-09-05T01:42:36.360Z,0.00
2017-09-05T01:44:31.376Z,0.00
2017-09-05T01:45:30.848Z,0.00
2017-09-05T01:47:25.328Z,0.00
2017-09-05T01:48:25.385Z,0.00
2017-09-05T01:50:19.808Z,0.00
2017-09-05T01:51:19.857Z,0.00
2017-09-05T01:53:13.345Z,0.00
2017-09-05T01:54:13.353Z,0.00
2017-09-05T01:56:07.825Z,0.00
2017-09-05T01:57:07.857Z,0.00
2017-09-05T01:59:01.482Z,0.00
2017-09-05T02:00:01.361Z,0.00
2017-09-05T02:01:54.865Z,0.00
2017-09-05T02:02:54.849Z,0.00
2017-09-05T02:04:48.337Z,0.00
2017-09-05T02:05:48.337Z,0.00
2017-09-05T02:07:41.809Z,0.00
2017-09-05T02:08:41.850Z,0.00
2017-09-05T02:10:36.338Z,0.00
2017-09-05T02:11:36.506Z,0.00
2017-09-05T02:13:30.818Z,0.00
2017-09-05T02:14:30.850Z,0.00
2017-09-05T02:16:25.353Z,0.00
2017-09-05T02:17:25.346Z,0.00
2017-09-05T02:19:18.801Z,0.00
2017-09-05T02:20:18.833Z,0.00
2017-09-05T02:22:13.346Z,0.00
2017-09-05T02:23:13.330Z,0.00
2017-09-05T02:25:09.300Z,0.00
2017-09-05T02:26:09.338Z,0.00
2017-09-05T02:28:04.458Z,0.00
2017-09-05T02:29:03.899Z,0.00
2017-09-05T02:30:57.354Z,0.00
2017-09-05T02:31:57.346Z,0.00
2017-09-05T02:33:52.826Z,0.00
2017-09-05T02:34:52.873Z,0.00
2017-09-05T02:36:46.340Z,0.00
2017-09-05T02:37:46.347Z,0.00
2017-09-05T02:39:40.826Z,0.00
2017-09-05T02:40:40.863Z,0.00
2017-09-05T02:42:34.433Z,0.00
2017-09-05T02:43:34.363Z,0.00
2017-09-05T02:45:28.860Z,0.00
2017-09-05T02:46:28.988Z,0.00
2017-09-05T02:48:23.347Z,0.00
2017-09-05T02:49:23.387Z,0.00
2017-09-05T02:51:17.963Z,0.00
2017-09-05T02:52:18.896Z,0.00
2017-09-05T02:54:12.340Z,0.00
2017-09-05T02:55:12.379Z,0.00
2017-09-05T02:57:05.862Z,0.00
2017-09-05T02:58:05.867Z,0.00
2017-09-05T03:00:00.323Z,0.00
2017-09-05T03:01:00.363Z,0.00
2017-09-05T03:02:53.844Z,0.00
2017-09-05T03:03:53.861Z,0.00
2017-09-05T03:05:48.908Z,0.00
2017-09-05T03:06:48.452Z,0.00
2017-09-05T03:08:42.844Z,0.00
2017-09-05T03:09:42.851Z,0.00
2017-09-05T03:11:37.419Z,0.00
2017-09-05T03:12:37.340Z,0.00
2017-09-05T03:14:32.835Z,0.00
2017-09-05T03:15:32.837Z,0.00
2017-09-05T03:17:27.292Z,0.00
2017-09-05T03:18:27.333Z,0.00
2017-09-05T03:20:21.812Z,0.00
2017-09-05T03:21:21.828Z,0.00
2017-09-05T03:23:16.332Z,0.00
2017-09-05T03:24:16.317Z,0.00
2017-09-05T03:26:10.100Z,0.00
2017-09-05T03:27:09.909Z,0.00
2017-09-05T03:29:03.404Z,0.00
2017-09-05T03:30:03.477Z,0.00
2017-09-05T03:31:57.876Z,0.00
2017-09-05T03:32:57.893Z,0.00
2017-09-05T03:34:52.365Z,0.00
2017-09-05T03:35:52.381Z,0.00
2017-09-05T03:37:46.861Z,0.00
2017-09-05T03:38:46.877Z,0.00
2017-09-05T03:40:41.341Z,0.00
2017-09-05T03:41:50.021Z,0.00
2017-09-05T03:43:35.866Z,0.00
2017-09-05T03:44:35.886Z,0.00
2017-09-05T03:46:30.326Z,0.00
2017-09-05T03:47:30.487Z,0.00
2017-09-05T03:49:23.879Z,0.00
2017-09-05T03:50:23.870Z,0.00
2017-09-05T03:52:19.574Z,0.00
2017-09-05T03:53:19.374Z,0.00
2017-09-05T03:55:13.886Z,0.00
2017-09-05T03:56:13.902Z,0.00
2017-09-05T03:58:07.358Z,0.00
2017-09-05T03:59:07.414Z,0.00
2017-09-05T04:01:03.382Z,0.00
2017-09-05T04:02:03.454Z,0.00
2017-09-05T04:03:57.886Z,0.00
2017-09-05T04:04:57.910Z,0.00
2017-09-05T04:06:51.390Z,0.00
2017-09-05T04:07:51.414Z,0.00
2017-09-05T04:09:46.031Z,0.00
2017-09-05T04:10:45.903Z,0.00
2017-09-05T04:12:39.639Z,0.00
2017-09-05T04:13:39.407Z,0.00
2017-09-05T04:15:33.983Z,0.00
2017-09-05T04:16:33.910Z,0.00
2017-09-05T04:18:27.392Z,0.00
2017-09-05T04:19:27.415Z,0.00
2017-09-05T04:21:20.863Z,0.00
2017-09-05T04:22:20.927Z,0.00
2017-09-05T04:24:15.382Z,0.00
2017-09-05T04:25:15.399Z,0.00
2017-09-05T04:27:09.887Z,0.00
2017-09-05T04:28:10.031Z,4.00
2017-09-05T04:30:03.432Z,0.00
2017-09-05T04:31:03.599Z,4.00
2017-09-05T04:32:57.855Z,8.00
2017-09-05T04:33:57.927Z,8.00
2017-09-05T04:35:51.416Z,8.00
2017-09-05T04:36:51.392Z,12.00
2017-09-05T04:38:45.856Z,16.00
2017-09-05T04:39:45.888Z,16.00
2017-09-05T04:41:40.384Z,24.00
2017-09-05T04:42:40.400Z,24.00
2017-09-05T04:44:35.119Z,40.00
2017-09-05T04:45:35.000Z,44.00
2017-09-05T04:47:29.361Z,48.00
2017-09-05T04:48:29.416Z,48.00
2017-09-05T04:50:22.904Z,64.00
2017-09-05T04:51:22.888Z,68.00
2017-09-05T04:53:17.344Z,80.00
2017-09-05T04:54:17.417Z,84.00
2017-09-05T04:56:11.890Z,100.00
2017-09-05T04:57:12.929Z,124.00
2017-09-05T04:59:06.360Z,148.00
2017-09-05T05:00:06.393Z,144.00
2017-09-05T05:02:00.881Z,212.00
2017-09-05T05:03:00.892Z,244.00
2017-09-05T05:04:55.389Z,300.00
2017-09-05T05:05:55.389Z,324.00
2017-09-05T05:07:49.844Z,284.00
2017-09-05T05:08:49.877Z,308.00
2017-09-05T05:10:44.361Z,376.00
2017-09-05T05:11:45.433Z,332.00
2017-09-05T05:13:38.977Z,336.00
2017-09-05T05:14:39.032Z,328.00
2017-09-05T05:16:32.568Z,328.00
2017-09-05T05:17:32.560Z,368.00
2017-09-05T05:19:26.065Z,432.00
2017-09-05T05:20:26.096Z,504.00
2017-09-05T05:22:20.632Z,552.00
2017-09-05T05:23:20.662Z,512.00
2017-09-05T05:25:15.153Z,404.00
2017-09-05T05:26:15.160Z,364.00
2017-09-05T05:28:09.617Z,368.00
2017-09-05T05:29:09.662Z,388.00
2017-09-05T05:31:04.131Z,676.00
2017-09-05T05:32:04.178Z,824.00
2017-09-05T05:33:57.603Z,788.00
2017-09-05T05:34:57.646Z,700.00
2017-09-05T05:36:51.111Z,668.00
2017-09-05T05:37:51.160Z,708.00
2017-09-05T05:39:45.591Z,916.00
2017-09-05T05:40:45.671Z,884.00
2017-09-05T05:42:40.104Z,784.00
2017-09-05T05:43:40.128Z,876.00
2017-09-05T05:45:33.583Z,892.00
2017-09-05T05:46:33.616Z,860.00
2017-09-05T05:48:29.640Z,936.00
2017-09-05T05:49:29.616Z,1032.00
2017-09-05T05:51:23.071Z,944.00
2017-09-05T05:52:23.111Z,828.00
2017-09-05T05:54:17.600Z,804.00
2017-09-05T05:55:17.608Z,832.00
2017-09-05T05:57:12.064Z,1044.00
2017-09-05T05:58:12.104Z,1132.00
2017-09-05T06:00:05.584Z,1300.00
2017-09-05T06:01:05.600Z,1488.00
2017-09-05T06:02:59.056Z,2188.00
2017-09-05T06:03:59.096Z,2336.00
2017-09-05T06:05:53.584Z,2360.00
2017-09-05T06:06:53.592Z,2340.00
2017-09-05T06:08:48.048Z,2364.00
2017-09-05T06:09:48.081Z,2468.00
2017-09-05T06:11:42.569Z,2608.00
2017-09-05T06:12:42.593Z,2684.00
2017-09-05T06:14:36.072Z,2684.00
2017-09-05T06:15:36.081Z,2648.00
2017-09-05T06:17:30.604Z,2648.00
2017-09-05T06:18:30.601Z,2800.00
2017-09-05T06:20:24.562Z,3216.00
2017-09-05T06:21:24.073Z,3260.00
2017-09-05T06:23:18.544Z,3312.00
2017-09-05T06:24:18.612Z,3368.00
2017-09-05T06:26:13.081Z,3364.00
2017-09-05T06:27:13.082Z,3260.00
2017-09-05T06:29:07.521Z,3104.00
2017-09-05T06:30:07.577Z,3248.00
2017-09-05T06:32:02.090Z,3592.00
2017-09-05T06:33:02.057Z,3760.00
2017-09-05T06:34:56.517Z,4040.00
2017-09-05T06:35:56.553Z,4044.00
2017-09-05T06:37:51.019Z,3768.00
2017-09-05T06:38:51.054Z,3728.00
2017-09-05T06:40:45.506Z,3544.00
2017-09-05T06:41:45.546Z,3500.00
2017-09-05T06:43:40.033Z,3208.00
2017-09-05T06:44:40.042Z,3192.00
2017-09-05T06:46:34.498Z,3776.00
2017-09-05T06:47:34.539Z,4220.00
2017-09-05T06:49:29.026Z,4732.00
2017-09-05T06:50:29.027Z,4908.00
2017-09-05T06:52:22.493Z,5012.00
2017-09-05T06:53:22.519Z,4672.00
2017-09-05T06:55:17.006Z,4344.00
2017-09-05T06:56:17.015Z,4084.00
2017-09-05T06:58:11.484Z,4180.00
2017-09-05T06:59:11.520Z,4272.00
2017-09-05T07:01:06.008Z,4396.00
2017-09-05T07:02:06.016Z,4352.00
2017-09-05T07:03:59.471Z,4532.00
2017-09-05T07:04:59.512Z,4604.00
2017-09-05T07:06:54.000Z,5612.00
2017-09-05T07:07:54.016Z,5672.00
2017-09-05T07:09:48.464Z,5772.00
2017-09-05T07:10:48.513Z,5752.00
2017-09-05T07:12:42.985Z,6080.00
2017-09-05T07:13:43.072Z,6308.00
2017-09-05T07:15:37.505Z,6092.00
2017-09-05T07:16:37.504Z,6312.00
2017-09-05T07:18:31.968Z,6620.00
2017-09-05T07:19:32.001Z,6676.00
2017-09-05T07:21:27.960Z,7532.00
2017-09-05T07:22:28.001Z,7724.00
2017-09-05T07:24:22.497Z,7320.00
2017-09-05T07:25:22.497Z,6740.00
2017-09-05T07:27:16.961Z,7064.00
2017-09-05T07:28:16.987Z,7212.00
2017-09-05T07:30:11.489Z,6436.00
2017-09-05T07:31:11.513Z,6624.00
2017-09-05T07:33:04.977Z,8264.00
2017-09-05T07:34:05.001Z,9532.00
2017-09-05T07:35:58.569Z,10476.00
2017-09-05T07:36:58.505Z,9576.00
2017-09-05T07:38:52.972Z,11640.00
2017-09-05T07:39:53.009Z,12420.00
2017-09-05T07:41:47.497Z,9784.00
2017-09-05T07:42:47.521Z,8992.00
2017-09-05T07:44:40.970Z,7960.00
2017-09-05T07:45:41.009Z,9328.00
2017-09-05T07:47:35.514Z,8964.00
2017-09-05T07:48:35.518Z,9564.00
2017-09-05T07:50:30.002Z,9108.00
2017-09-05T07:51:30.048Z,9108.00
2017-09-05T07:53:23.578Z,11524.00
2017-09-05T07:54:23.570Z,14372.00
2017-09-05T07:56:18.033Z,8904.00
2017-09-05T07:57:18.065Z,8556.00
2017-09-05T07:59:12.562Z,8980.00
2017-09-05T08:00:12.577Z,9560.00
2017-09-05T08:02:07.043Z,10928.00
2017-09-05T08:03:07.083Z,9900.00
2017-09-05T08:05:03.122Z,9744.00
2017-09-05T08:06:03.099Z,8232.00
2017-09-05T08:07:57.563Z,9312.00
2017-09-05T08:08:57.619Z,11500.00
2017-09-05T08:10:52.083Z,12324.00
2017-09-05T08:11:52.112Z,13204.00
2017-09-05T08:13:45.570Z,13104.00
2017-09-05T08:14:45.611Z,10760.00
2017-09-05T08:16:40.115Z,10076.00
2017-09-05T08:17:40.131Z,10228.00
2017-09-05T08:19:34.595Z,9272.00
2017-09-05T08:20:34.635Z,8848.00
2017-09-05T08:22:29.147Z,8824.00
2017-09-05T08:23:29.140Z,9392.00
2017-09-05T08:25:23.627Z,10060.00
2017-09-05T08:26:23.659Z,10396.00
2017-09-05T08:29:18.164Z,10492.00
2017-09-05T08:31:12.627Z,12380.00
2017-09-05T08:32:12.667Z,14044.00
2017-09-05T08:34:07.155Z,14612.00
2017-09-05T08:35:07.188Z,13040.00
2017-09-05T08:37:01.653Z,14716.00
2017-09-05T08:38:01.692Z,13280.00
2017-09-05T08:39:55.181Z,12124.00
2017-09-05T08:40:55.197Z,12440.00
2017-09-05T08:42:49.654Z,12724.00
2017-09-05T08:43:49.701Z,12808.00
2017-09-05T08:45:44.228Z,13304.00
2017-09-05T08:46:44.204Z,15548.00
2017-09-05T08:48:40.196Z,32448.00
2017-09-05T08:49:40.236Z,22112.00
2017-09-05T08:51:34.716Z,23776.00
2017-09-05T08:52:34.741Z,23744.00
2017-09-05T08:54:29.292Z,21312.00
2017-09-05T08:55:29.261Z,17952.00
2017-09-05T08:57:23.723Z,23808.00
2017-09-05T08:58:23.788Z,31296.00
2017-09-05T09:00:17.252Z,23584.00
2017-09-05T09:01:17.301Z,20064.00
2017-09-05T09:03:10.740Z,17824.00
2017-09-05T09:04:10.789Z,17312.00
2017-09-05T09:06:05.261Z,14412.00
2017-09-05T09:07:05.293Z,12900.00
2017-09-05T09:08:58.749Z,16640.00
2017-09-05T09:09:58.805Z,14908.00
2017-09-05T09:11:52.310Z,17312.00
2017-09-05T09:12:52.325Z,15552.00
2017-09-05T09:14:45.789Z,13036.00
2017-09-05T09:15:45.862Z,14016.00
2017-09-05T09:17:40.334Z,13872.00
2017-09-05T09:18:40.354Z,21280.00
2017-09-05T09:20:33.813Z,16048.00
2017-09-05T09:21:33.854Z,11700.00
2017-09-05T09:23:28.341Z,14352.00
2017-09-05T09:24:28.374Z,16048.00
2017-09-05T09:26:22.894Z,14896.00
2017-09-05T09:27:22.902Z,16548.00
2017-09-05T09:29:17.439Z,17760.00
2017-09-05T09:30:17.407Z,24800.00
2017-09-05T09:32:11.879Z,25088.00
2017-09-05T09:33:11.919Z,20320.00
2017-09-05T09:35:05.447Z,18176.00
2017-09-05T09:36:05.423Z,30336.00
2017-09-05T09:37:59.904Z,42368.00
2017-09-05T09:38:59.943Z,31168.00
2017-09-05T09:40:54.480Z,24864.00
2017-09-05T09:41:54.464Z,27424.00
2017-09-05T09:43:47.463Z,15240.00
2017-09-05T09:44:47.471Z,22912.00
2017-09-05T09:46:41.944Z,11128.00
2017-09-05T09:47:41.984Z,12460.00
2017-09-05T09:49:36.503Z,16896.00
2017-09-05T09:50:36.504Z,17088.00
2017-09-05T09:52:29.984Z,16516.00
2017-09-05T09:53:30.010Z,21280.00
2017-09-05T09:55:24.520Z,19136.00
2017-09-05T09:56:24.537Z,14604.00
2017-09-05T09:58:19.008Z,30560.00
2017-09-05T09:59:19.056Z,17120.00
2017-09-05T10:01:13.552Z,25920.00
2017-09-05T10:02:13.568Z,50528.00
2017-09-05T10:04:08.064Z,28576.00
2017-09-05T10:05:08.081Z,19520.00
2017-09-05T10:07:02.552Z,24448.00
2017-09-05T10:08:02.601Z,61696.00
2017-09-05T10:09:56.096Z,48992.00
2017-09-05T10:10:56.129Z,66752.00
2017-09-05T10:12:52.137Z,28768.00
2017-09-05T10:13:52.160Z,17184.00
2017-09-05T10:15:46.665Z,69152.00
2017-09-05T10:16:46.689Z,29152.00
2017-09-05T10:18:40.161Z,35712.00
2017-09-05T10:19:40.177Z,19680.00
2017-09-05T10:21:34.689Z,18784.00
2017-09-05T10:22:34.689Z,14684.00
2017-09-05T10:24:29.169Z,12932.00
2017-09-05T10:25:29.371Z,15428.00
2017-09-05T10:27:23.761Z,9860.00
2017-09-05T10:28:23.753Z,7904.00
2017-09-05T10:30:18.497Z,9064.00
2017-09-05T10:31:18.394Z,10648.00
2017-09-05T10:33:12.890Z,7296.00
2017-09-05T10:34:12.803Z,5088.00
2017-09-05T10:36:07.302Z,6532.00
2017-09-05T10:37:07.487Z,5640.00
2017-09-05T10:39:01.870Z,6472.00
2017-09-05T10:40:01.871Z,13928.00
2017-09-05T10:41:56.327Z,22208.00
2017-09-05T10:42:56.351Z,18208.00
2017-09-05T10:44:50.791Z,15548.00
2017-09-05T10:45:50.911Z,58240.00
2017-09-05T10:47:45.335Z,27552.00
2017-09-05T10:48:45.359Z,65120.00
2017-09-05T10:50:38.544Z,38368.00
2017-09-05T10:51:38.495Z,50336.00
2017-09-05T10:53:32.991Z,27936.00
2017-09-05T10:54:33.063Z,24128.00
2017-09-05T10:56:27.503Z,25568.00
2017-09-05T10:57:27.552Z,24992.00
2017-09-05T10:59:23.740Z,23264.00
2017-09-05T11:00:23.688Z,20064.00
2017-09-05T11:02:18.199Z,19744.00
2017-09-05T11:03:18.359Z,19680.00
2017-09-05T11:05:14.407Z,26208.00
2017-09-05T11:06:14.328Z,23776.00
2017-09-05T11:08:10.008Z,29664.00
2017-09-05T11:09:09.939Z,30272.00
2017-09-05T11:11:04.408Z,20416.00
2017-09-05T11:12:04.456Z,22272.00
2017-09-05T11:13:58.960Z,23136.00
2017-09-05T11:14:58.968Z,25152.00
2017-09-05T11:16:53.440Z,27424.00
2017-09-05T11:17:53.488Z,32832.00
2017-09-05T11:19:47.137Z,30592.00
2017-09-05T11:20:47.020Z,44896.00
2017-09-05T11:22:41.488Z,34496.00
2017-09-05T11:23:41.528Z,29376.00
2017-09-05T11:25:35.060Z,20896.00
2017-09-05T11:26:35.048Z,23744.00
2017-09-05T11:28:29.505Z,23232.00
2017-09-05T11:29:29.561Z,22528.00
2017-09-05T11:31:24.059Z,24672.00
2017-09-05T11:32:24.073Z,37536.00
2017-09-05T11:34:18.593Z,27808.00
2017-09-05T11:35:18.601Z,17600.00
2017-09-05T11:37:13.105Z,31168.00
2017-09-05T11:38:14.109Z,36000.00
2017-09-05T11:40:07.653Z,49664.00
2017-09-05T11:41:08.101Z,46784.00
2017-09-05T11:43:02.254Z,15420.00
2017-09-05T11:44:02.622Z,8720.00
2017-09-05T11:45:55.909Z,6552.00
2017-09-05T11:46:56.030Z,5992.00
2017-09-05T11:48:50.405Z,5380.00
2017-09-05T11:49:50.965Z,5844.00
2017-09-05T11:51:46.669Z,6544.00
2017-09-05T11:52:47.629Z,6584.00
2017-09-05T11:54:40.895Z,7604.00
2017-09-05T11:55:40.942Z,7516.00
2017-09-05T11:57:35.413Z,5444.00
2017-09-05T11:58:35.438Z,4124.00
2017-09-05T12:00:29.918Z,4244.00
2017-09-05T12:01:29.982Z,5196.00
2017-09-05T12:03:24.518Z,8572.00
2017-09-05T12:04:24.493Z,11500.00
2017-09-05T12:06:19.047Z,24064.00
2017-09-05T12:07:19.013Z,37120.00
2017-09-05T12:09:13.549Z,83680.00
2017-09-05T12:10:13.565Z,91136.00
2017-09-05T12:12:07.989Z,16768.00
2017-09-05T12:13:08.038Z,11596.00
2017-09-05T12:15:02.573Z,6584.00
2017-09-05T12:16:02.567Z,5496.00
2017-09-05T12:17:57.026Z,4356.00
2017-09-05T12:18:57.077Z,3420.00
2017-09-05T12:20:51.558Z,2140.00
2017-09-05T12:21:51.598Z,1840.00
2017-09-05T12:23:45.110Z,1516.00
2017-09-05T12:24:45.118Z,1360.00
2017-09-05T12:26:38.942Z,1092.00
2017-09-05T12:27:38.653Z,996.00
2017-09-05T12:29:47.926Z,2280.00
2017-09-05T12:30:47.962Z,3324.00
2017-09-05T12:32:41.462Z,4576.00
2017-09-05T12:33:41.465Z,5192.00
2017-09-05T12:35:34.991Z,7060.00
2017-09-05T12:36:34.966Z,7916.00
2017-09-05T12:38:29.471Z,8456.00
2017-09-05T12:39:29.511Z,8560.00
2017-09-05T12:41:23.975Z,6916.00
2017-09-05T12:42:24.015Z,5632.00
2017-09-05T12:44:19.055Z,4508.00
2017-09-05T12:45:18.566Z,4936.00
2017-09-05T12:47:13.019Z,5792.00
2017-09-05T12:48:13.051Z,6152.00
2017-09-05T12:50:07.827Z,5556.00
2017-09-05T12:51:07.788Z,5320.00
2017-09-05T12:53:02.332Z,5444.00
2017-09-05T12:54:02.363Z,5696.00
2017-09-05T12:55:56.860Z,6496.00
2017-09-05T12:56:56.836Z,7036.00
2017-09-05T12:58:50.348Z,8780.00
2017-09-05T12:59:50.364Z,8960.00
2017-09-05T13:01:44.834Z,13768.00
2017-09-05T13:02:44.875Z,17568.00
2017-09-05T13:04:39.371Z,15568.00
2017-09-05T13:05:39.394Z,14828.00
2017-09-05T13:07:33.851Z,10616.00
2017-09-05T13:08:33.890Z,7140.00
2017-09-05T13:10:28.371Z,6588.00
2017-09-05T13:11:28.395Z,9932.00
2017-09-05T13:13:22.923Z,7232.00
2017-09-05T13:14:22.996Z,6344.00
2017-09-05T13:16:17.404Z,6056.00
2017-09-05T13:17:17.450Z,6436.00
2017-09-05T13:19:11.019Z,8948.00
2017-09-05T13:20:11.579Z,9860.00
2017-09-05T13:22:05.459Z,15024.00
2017-09-05T13:23:05.531Z,17824.00
2017-09-05T13:24:58.531Z,17536.00
2017-09-05T13:25:58.646Z,15864.00
2017-09-05T13:27:52.037Z,15220.00
2017-09-05T13:28:52.080Z,12764.00
2017-09-05T13:30:48.348Z,8700.00
2017-09-05T13:31:48.373Z,7488.00
2017-09-05T13:33:42.684Z,8852.00
2017-09-05T13:34:42.749Z,11196.00
2017-09-05T13:36:36.293Z,10956.00
2017-09-05T13:37:36.326Z,11200.00
2017-09-05T13:39:30.788Z,14672.00
2017-09-05T13:40:30.813Z,14544.00
2017-09-05T13:42:26.808Z,13824.00
2017-09-05T13:43:26.820Z,13148.00
2017-09-05T13:45:21.332Z,11240.00
2017-09-05T13:46:22.321Z,10948.00
2017-09-05T13:48:15.833Z,12216.00
2017-09-05T13:49:15.847Z,12748.00
2017-09-05T13:51:10.308Z,11924.00
2017-09-05T13:52:10.356Z,10800.00
2017-09-05T13:54:04.845Z,10456.00
2017-09-05T13:55:04.869Z,10800.00
2017-09-05T13:56:59.370Z,10196.00
2017-09-05T13:58:00.376Z,9092.00
2017-09-05T13:59:53.848Z,9048.00
2017-09-05T14:00:53.893Z,9456.00
2017-09-05T14:02:46.887Z,8948.00
2017-09-05T14:03:46.908Z,8580.00
2017-09-05T14:05:41.413Z,8316.00
2017-09-05T14:06:41.445Z,8224.00
2017-09-05T14:08:35.896Z,8084.00
2017-09-05T14:09:35.936Z,8324.00
2017-09-05T14:11:30.416Z,9124.00
2017-09-05T14:12:30.448Z,9708.00
2017-09-05T14:14:26.513Z,9380.00
2017-09-05T14:15:26.448Z,9840.00
2017-09-05T14:17:19.961Z,12108.00
2017-09-05T14:18:20.982Z,10980.00
2017-09-05T14:20:14.438Z,8292.00
2017-09-05T14:21:15.471Z,8164.00
2017-09-05T14:23:07.975Z,11744.00
2017-09-05T14:24:07.990Z,13064.00
2017-09-05T14:26:01.511Z,16160.00
2017-09-05T14:27:01.495Z,15904.00
2017-09-05T14:28:55.975Z,16608.00
2017-09-05T14:29:55.999Z,14900.00
2017-09-05T14:31:50.487Z,13608.00
2017-09-05T14:32:50.511Z,12364.00
2017-09-05T14:34:44.996Z,10444.00
2017-09-05T14:35:45.008Z,11988.00
2017-09-05T14:37:38.504Z,12176.00
2017-09-05T14:38:38.528Z,11188.00
2017-09-05T14:40:32.983Z,11868.00
2017-09-05T14:41:40.683Z,12260.00
2017-09-05T14:43:27.559Z,10428.00
2017-09-05T14:44:27.544Z,9304.00
2017-09-05T14:46:22.064Z,9392.00
2017-09-05T14:47:22.085Z,7244.00
2017-09-05T14:49:16.519Z,3300.00
2017-09-05T14:50:16.569Z,2516.00
2017-09-05T14:52:10.104Z,2224.00
2017-09-05T14:53:10.104Z,2228.00
2017-09-05T14:55:03.552Z,2216.00
2017-09-05T14:56:03.600Z,2796.00
2017-09-05T14:57:58.080Z,4852.00
2017-09-05T14:58:58.097Z,7360.00
2017-09-05T15:00:51.816Z,10448.00
2017-09-05T15:01:51.872Z,9336.00
2017-09-05T15:03:45.352Z,11044.00
2017-09-05T15:04:45.361Z,13132.00
2017-09-05T15:06:39.834Z,11084.00
2017-09-05T15:07:39.897Z,9208.00
2017-09-05T15:09:33.385Z,7268.00
2017-09-05T15:10:33.393Z,7316.00
2017-09-05T15:12:26.874Z,5304.00
2017-09-05T15:13:26.914Z,4576.00
2017-09-05T15:15:21.425Z,4044.00
2017-09-05T15:16:21.425Z,3080.00
2017-09-05T15:18:14.929Z,2320.00
2017-09-05T15:19:14.937Z,2456.00
2017-09-05T15:21:09.457Z,2748.00
2017-09-05T15:22:09.449Z,2684.00
2017-09-05T15:24:03.922Z,2828.00
2017-09-05T15:25:03.970Z,3064.00
2017-09-05T15:26:58.554Z,4152.00
2017-09-05T15:27:58.475Z,5808.00
2017-09-05T15:29:52.946Z,6456.00
2017-09-05T15:30:52.980Z,6548.00
2017-09-05T15:32:47.474Z,6940.00
2017-09-05T15:33:47.531Z,6888.00
2017-09-05T15:35:42.970Z,7100.00
2017-09-05T15:36:43.178Z,7352.00
2017-09-05T15:38:37.650Z,8052.00
2017-09-05T15:39:37.571Z,7904.00
2017-09-05T15:41:32.042Z,7336.00
2017-09-05T15:42:32.066Z,7124.00
2017-09-05T15:44:26.522Z,6732.00
2017-09-05T15:45:26.571Z,7104.00
2017-09-05T15:47:21.050Z,5828.00
2017-09-05T15:48:21.091Z,5348.00
2017-09-05T15:50:15.643Z,5236.00
2017-09-05T15:51:15.612Z,5408.00
2017-09-05T15:53:10.115Z,5744.00
2017-09-05T15:54:10.155Z,5408.00
2017-09-05T15:56:04.723Z,4748.00
2017-09-05T15:57:04.644Z,3772.00
2017-09-05T15:58:59.147Z,3204.00
2017-09-05T15:59:59.171Z,2724.00
2017-09-05T16:01:52.668Z,2384.00
2017-09-05T16:02:53.107Z,2016.00
2017-09-05T16:04:48.403Z,1412.00
2017-09-05T16:05:48.764Z,1212.00
2017-09-05T16:07:42.860Z,1056.00
2017-09-05T16:08:42.892Z,1036.00
2017-09-05T16:10:37.324Z,1280.00
2017-09-05T16:11:37.299Z,1400.00
2017-09-05T16:13:31.836Z,1260.00
2017-09-05T16:14:31.820Z,1276.00
2017-09-05T16:16:26.557Z,1356.00
2017-09-05T16:17:26.428Z,1472.00
2017-09-05T16:19:20.053Z,1776.00
2017-09-05T16:20:19.949Z,1808.00
2017-09-05T16:22:14.629Z,2036.00
2017-09-05T16:23:14.412Z,2040.00
2017-09-05T16:25:09.180Z,1648.00
2017-09-05T16:26:09.157Z,1440.00
2017-09-05T16:28:02.341Z,1444.00
2017-09-05T16:29:02.404Z,1516.00
2017-09-05T16:31:02.499Z,1632.00
2017-09-05T16:31:57.962Z,1640.00
2017-09-05T16:33:52.482Z,1548.00
2017-09-05T16:34:52.746Z,1524.00
2017-09-05T16:36:47.274Z,1500.00
2017-09-05T16:37:47.010Z,1512.00
2017-09-05T16:39:41.874Z,1524.00
2017-09-05T16:40:41.514Z,1644.00
2017-09-05T16:42:36.010Z,1444.00
2017-09-05T16:43:36.034Z,1444.00
2017-09-05T16:45:30.473Z,1676.00
2017-09-05T16:46:31.510Z,1700.00
2017-09-05T16:48:24.990Z,1680.00
2017-09-05T16:49:25.022Z,1672.00
2017-09-05T16:51:18.479Z,1700.00
2017-09-05T16:52:18.542Z,1644.00
2017-09-05T16:54:12.998Z,1532.00
2017-09-05T16:55:13.024Z,1492.00
2017-09-05T16:57:07.479Z,1512.00
2017-09-05T16:58:07.527Z,1592.00
2017-09-05T17:00:02.021Z,1652.00
2017-09-05T17:01:02.031Z,1564.00
2017-09-05T17:02:56.551Z,1596.00
2017-09-05T17:03:56.553Z,1640.00
2017-09-05T17:05:51.023Z,1784.00
2017-09-05T17:06:51.064Z,1868.00
2017-09-05T17:08:45.541Z,2016.00
2017-09-05T17:09:45.567Z,2104.00
2017-09-05T17:11:40.096Z,2112.00
2017-09-05T17:12:40.167Z,2120.00
2017-09-05T17:14:34.551Z,2048.00
2017-09-05T17:15:34.591Z,1872.00
2017-09-05T17:17:29.072Z,1716.00
2017-09-05T17:18:29.096Z,1656.00
2017-09-05T17:20:23.624Z,1496.00
2017-09-05T17:21:23.600Z,1428.00
2017-09-05T17:23:17.072Z,1284.00
2017-09-05T17:24:18.096Z,1220.00
2017-09-05T17:26:11.593Z,1112.00
2017-09-05T17:27:11.613Z,1076.00
2017-09-05T17:29:06.125Z,1016.00
2017-09-05T17:30:06.124Z,1000.00
2017-09-05T17:31:59.580Z,1008.00
2017-09-05T17:32:59.623Z,1028.00
2017-09-05T17:34:54.116Z,1120.00
2017-09-05T17:35:54.140Z,1124.00
2017-09-05T17:37:48.671Z,1060.00
2017-09-05T17:38:48.653Z,1000.00
2017-09-05T17:40:43.141Z,864.00
2017-09-05T17:41:43.205Z,784.00
2017-09-05T17:43:39.737Z,628.00
2017-09-05T17:45:53.372Z,540.00
2017-09-05T17:46:52.869Z,516.00
2017-09-05T17:48:46.340Z,420.00
2017-09-05T17:49:46.485Z,348.00
2017-09-05T17:51:39.813Z,260.00
2017-09-05T17:52:40.068Z,236.00
2017-09-05T17:54:36.029Z,176.00
2017-09-05T17:56:49.213Z,168.00
2017-09-05T17:57:49.941Z,176.00